sensor_id;sensor_type;location;lat;lon;timestamp;P1;durP1;ratioP1;P2;durP2;ratioP2
32393;SDS011;18853;45.426;9.206;2023-05-02T00:00:42;21.38;;;17.83;;
32393;SDS011;18853;45.426;9.206;2023-05-02T00:03:09;18.45;;;16.35;;
32393;SDS011;18853;45.426;9.206;2023-05-02T00:05:36;19.85;;;16.67;;
32393;SDS011;18853;45.426;9.206;2023-05-02T00:08:01;22.25;;;16.98;;
32393;SDS011;18853;45.426;9.206;2023-05-02T00:10:27;19.80;;;17.48;;
32393;SDS011;18853;45.426;9.206;2023-05-02T00:12:53;20.88;;;17.55;;
32393;SDS011;18853;45.426;9.206;2023-05-02T00:15:18;21.75;;;17.45;;
32393;SDS011;18853;45.426;9.206;2023-05-02T00:17:44;19.85;;;16.85;;
32393;SDS011;18853;45.426;9.206;2023-05-02T00:20:10;20.63;;;17.15;;
32393;SDS011;18853;45.426;9.206;2023-05-02T00:22:37;19.17;;;17.15;;
32393;SDS011;18853;45.426;9.206;2023-05-02T00:25:03;22.80;;;18.25;;
32393;SDS011;18853;45.426;9.206;2023-05-02T00:27:29;21.63;;;18.10;;
32393;SDS011;18853;45.426;9.206;2023-05-02T00:29:56;22.38;;;18.27;;
32393;SDS011;18853;45.426;9.206;2023-05-02T00:32:23;18.95;;;15.90;;
32393;SDS011;18853;45.426;9.206;2023-05-02T00:34:49;21.65;;;18.50;;
32393;SDS011;18853;45.426;9.206;2023-05-02T00:37:14;21.63;;;18.65;;
32393;SDS011;18853;45.426;9.206;2023-05-02T00:39:40;22.92;;;19.40;;
32393;SDS011;18853;45.426;9.206;2023-05-02T00:42:06;21.35;;;18.17;;
32393;SDS011;18853;45.426;9.206;2023-05-02T00:44:32;21.10;;;18.10;;
32393;SDS011;18853;45.426;9.206;2023-05-02T00:46:57;21.60;;;18.15;;
32393;SDS011;18853;45.426;9.206;2023-05-02T00:49:25;20.38;;;17.27;;
32393;SDS011;18853;45.426;9.206;2023-05-02T00:51:52;21.73;;;17.83;;
32393;SDS011;18853;45.426;9.206;2023-05-02T00:54:18;21.23;;;17.23;;
32393;SDS011;18853;45.426;9.206;2023-05-02T00:56:44;20.17;;;16.63;;
32393;SDS011;18853;45.426;9.206;2023-05-02T00:59:11;20.63;;;17.20;;
32393;SDS011;18853;45.426;9.206;2023-05-02T01:10:39;19.08;;;16.65;;
32393;SDS011;18853;45.426;9.206;2023-05-02T01:15:50;19.20;;;15.52;;
32393;SDS011;18853;45.426;9.206;2023-05-02T01:18:20;18.73;;;15.25;;
32393;SDS011;18853;45.426;9.206;2023-05-02T01:20:49;19.40;;;15.90;;
32393;SDS011;18853;45.426;9.206;2023-05-02T01:23:24;16.23;;;13.30;;
32393;SDS011;18853;45.426;9.206;2023-05-02T01:31:25;16.15;;;13.75;;
32393;SDS011;18853;45.426;9.206;2023-05-02T01:34:02;15.25;;;13.32;;
32393;SDS011;18853;45.426;9.206;2023-05-02T01:36:30;16.45;;;14.20;;
32393;SDS011;18853;45.426;9.206;2023-05-02T01:38:59;17.23;;;12.95;;
32393;SDS011;18853;45.426;9.206;2023-05-02T01:41:26;16.02;;;13.45;;
32393;SDS011;18853;45.426;9.206;2023-05-02T01:43:57;16.23;;;13.57;;
32393;SDS011;18853;45.426;9.206;2023-05-02T01:46:33;15.48;;;13.02;;
32393;SDS011;18853;45.426;9.206;2023-05-02T01:49:02;15.85;;;13.05;;
32393;SDS011;18853;45.426;9.206;2023-05-02T01:51:32;13.90;;;11.90;;
32393;SDS011;18853;45.426;9.206;2023-05-02T01:54:03;16.60;;;12.25;;
32393;SDS011;18853;45.426;9.206;2023-05-02T01:56:33;15.32;;;12.65;;
32393;SDS011;18853;45.426;9.206;2023-05-02T01:59:01;14.30;;;12.52;;
32393;SDS011;18853;45.426;9.206;2023-05-02T02:01:30;15.93;;;12.93;;
32393;SDS011;18853;45.426;9.206;2023-05-02T02:03:56;13.32;;;11.52;;
32393;SDS011;18853;45.426;9.206;2023-05-02T02:06:24;13.20;;;11.20;;
32393;SDS011;18853;45.426;9.206;2023-05-02T02:08:51;13.55;;;11.57;;
32393;SDS011;18853;45.426;9.206;2023-05-02T02:11:26;14.75;;;11.52;;
32393;SDS011;18853;45.426;9.206;2023-05-02T02:14:05;11.32;;;9.63;;
32393;SDS011;18853;45.426;9.206;2023-05-02T02:16:36;10.80;;;9.43;;
32393;SDS011;18853;45.426;9.206;2023-05-02T02:19:06;10.50;;;8.73;;
32393;SDS011;18853;45.426;9.206;2023-05-02T02:21:34;9.85;;;8.40;;
32393;SDS011;18853;45.426;9.206;2023-05-02T02:24:02;9.20;;;7.70;;
32393;SDS011;18853;45.426;9.206;2023-05-02T02:26:30;8.02;;;6.90;;
32393;SDS011;18853;45.426;9.206;2023-05-02T02:28:56;8.55;;;6.78;;
32393;SDS011;18853;45.426;9.206;2023-05-02T02:31:22;7.85;;;5.80;;
32393;SDS011;18853;45.426;9.206;2023-05-02T02:33:49;7.30;;;5.82;;
32393;SDS011;18853;45.426;9.206;2023-05-02T02:36:18;6.65;;;5.50;;
32393;SDS011;18853;45.426;9.206;2023-05-02T02:38:54;6.43;;;5.07;;
32393;SDS011;18853;45.426;9.206;2023-05-02T02:41:59;7.22;;;5.50;;
32393;SDS011;18853;45.426;9.206;2023-05-02T02:47:25;6.97;;;5.05;;
32393;SDS011;18853;45.426;9.206;2023-05-02T02:50:02;5.35;;;4.45;;
32393;SDS011;18853;45.426;9.206;2023-05-02T02:55:19;5.57;;;4.15;;
32393;SDS011;18853;45.426;9.206;2023-05-02T03:00:36;7.18;;;5.00;;
32393;SDS011;18853;45.426;9.206;2023-05-02T03:03:02;7.22;;;5.03;;
32393;SDS011;18853;45.426;9.206;2023-05-02T03:05:31;6.10;;;4.47;;
32393;SDS011;18853;45.426;9.206;2023-05-02T03:07:58;6.43;;;4.43;;
32393;SDS011;18853;45.426;9.206;2023-05-02T03:10:24;6.40;;;4.50;;
32393;SDS011;18853;45.426;9.206;2023-05-02T03:12:50;5.53;;;3.95;;
32393;SDS011;18853;45.426;9.206;2023-05-02T03:18:10;6.22;;;5.07;;
32393;SDS011;18853;45.426;9.206;2023-05-02T03:20:35;7.13;;;5.07;;
32393;SDS011;18853;45.426;9.206;2023-05-02T03:23:01;7.32;;;5.63;;
32393;SDS011;18853;45.426;9.206;2023-05-02T03:25:27;8.15;;;6.25;;
32393;SDS011;18853;45.426;9.206;2023-05-02T03:27:53;7.68;;;6.30;;
32393;SDS011;18853;45.426;9.206;2023-05-02T03:30:21;9.32;;;8.00;;
32393;SDS011;18853;45.426;9.206;2023-05-02T03:32:47;9.70;;;8.35;;
32393;SDS011;18853;45.426;9.206;2023-05-02T03:35:13;12.45;;;9.43;;
32393;SDS011;18853;45.426;9.206;2023-05-02T03:37:39;10.98;;;9.18;;
32393;SDS011;18853;45.426;9.206;2023-05-02T03:40:05;13.50;;;10.32;;
32393;SDS011;18853;45.426;9.206;2023-05-02T03:42:33;12.25;;;10.57;;
32393;SDS011;18853;45.426;9.206;2023-05-02T03:45:05;12.75;;;10.15;;
32393;SDS011;18853;45.426;9.206;2023-05-02T03:47:31;12.32;;;10.02;;
32393;SDS011;18853;45.426;9.206;2023-05-02T03:49:57;11.55;;;9.13;;
32393;SDS011;18853;45.426;9.206;2023-05-02T03:52:23;10.93;;;9.30;;
32393;SDS011;18853;45.426;9.206;2023-05-02T03:54:49;11.93;;;9.98;;
32393;SDS011;18853;45.426;9.206;2023-05-02T03:57:15;10.32;;;8.77;;
32393;SDS011;18853;45.426;9.206;2023-05-02T03:59:41;10.68;;;8.02;;
32393;SDS011;18853;45.426;9.206;2023-05-02T04:02:09;8.50;;;7.28;;
32393;SDS011;18853;45.426;9.206;2023-05-02T04:04:36;7.70;;;6.50;;
32393;SDS011;18853;45.426;9.206;2023-05-02T04:07:02;8.30;;;6.72;;
32393;SDS011;18853;45.426;9.206;2023-05-02T04:09:29;8.00;;;6.75;;
32393;SDS011;18853;45.426;9.206;2023-05-02T04:11:55;9.60;;;6.60;;
32393;SDS011;18853;45.426;9.206;2023-05-02T04:14:20;8.07;;;5.95;;
32393;SDS011;18853;45.426;9.206;2023-05-02T04:16:49;6.90;;;5.88;;
32393;SDS011;18853;45.426;9.206;2023-05-02T04:19:16;8.00;;;6.80;;
32393;SDS011;18853;45.426;9.206;2023-05-02T04:21:42;7.47;;;5.90;;
32393;SDS011;18853;45.426;9.206;2023-05-02T04:24:09;9.80;;;5.85;;
32393;SDS011;18853;45.426;9.206;2023-05-02T04:26:35;7.38;;;5.53;;
32393;SDS011;18853;45.426;9.206;2023-05-02T04:29:01;7.68;;;5.82;;
32393;SDS011;18853;45.426;9.206;2023-05-02T04:31:26;6.45;;;5.47;;
32393;SDS011;18853;45.426;9.206;2023-05-02T04:33:54;7.20;;;5.65;;
32393;SDS011;18853;45.426;9.206;2023-05-02T04:36:20;7.28;;;5.07;;
32393;SDS011;18853;45.426;9.206;2023-05-02T04:38:45;5.50;;;4.88;;
32393;SDS011;18853;45.426;9.206;2023-05-02T04:41:11;7.28;;;5.05;;
32393;SDS011;18853;45.426;9.206;2023-05-02T04:43:37;6.45;;;4.93;;
32393;SDS011;18853;45.426;9.206;2023-05-02T04:46:03;5.68;;;4.63;;
32393;SDS011;18853;45.426;9.206;2023-05-02T04:48:28;6.55;;;4.88;;
32393;SDS011;18853;45.426;9.206;2023-05-02T04:50:54;6.35;;;5.18;;
32393;SDS011;18853;45.426;9.206;2023-05-02T04:53:20;7.20;;;4.97;;
32393;SDS011;18853;45.426;9.206;2023-05-02T04:55:47;6.80;;;4.78;;
32393;SDS011;18853;45.426;9.206;2023-05-02T04:58:18;6.45;;;5.03;;
32393;SDS011;18853;45.426;9.206;2023-05-02T05:00:43;7.93;;;5.25;;
32393;SDS011;18853;45.426;9.206;2023-05-02T05:03:09;7.00;;;5.00;;
32393;SDS011;18853;45.426;9.206;2023-05-02T05:05:35;6.40;;;4.57;;
32393;SDS011;18853;45.426;9.206;2023-05-02T05:08:01;6.93;;;4.80;;
32393;SDS011;18853;45.426;9.206;2023-05-02T05:10:26;6.18;;;4.75;;
32393;SDS011;18853;45.426;9.206;2023-05-02T05:12:52;5.93;;;4.13;;
32393;SDS011;18853;45.426;9.206;2023-05-02T05:15:18;5.40;;;4.00;;
32393;SDS011;18853;45.426;9.206;2023-05-02T05:17:48;5.88;;;4.45;;
32393;SDS011;18853;45.426;9.206;2023-05-02T05:20:13;6.43;;;4.90;;
32393;SDS011;18853;45.426;9.206;2023-05-02T05:22:39;5.53;;;4.15;;
32393;SDS011;18853;45.426;9.206;2023-05-02T05:25:06;6.30;;;4.93;;
32393;SDS011;18853;45.426;9.206;2023-05-02T05:27:33;5.95;;;4.15;;
32393;SDS011;18853;45.426;9.206;2023-05-02T05:29:59;5.78;;;4.32;;
32393;SDS011;18853;45.426;9.206;2023-05-02T05:32:25;7.10;;;4.53;;
32393;SDS011;18853;45.426;9.206;2023-05-02T05:34:51;4.82;;;4.07;;
32393;SDS011;18853;45.426;9.206;2023-05-02T05:37:18;6.38;;;4.22;;
32393;SDS011;18853;45.426;9.206;2023-05-02T05:39:44;5.32;;;4.10;;
32393;SDS011;18853;45.426;9.206;2023-05-02T05:42:10;5.75;;;4.60;;
32393;SDS011;18853;45.426;9.206;2023-05-02T05:44:37;5.95;;;4.28;;
32393;SDS011;18853;45.426;9.206;2023-05-02T05:47:03;4.60;;;3.80;;
32393;SDS011;18853;45.426;9.206;2023-05-02T05:49:29;5.32;;;3.90;;
32393;SDS011;18853;45.426;9.206;2023-05-02T05:51:55;6.15;;;4.00;;
32393;SDS011;18853;45.426;9.206;2023-05-02T05:54:21;32.10;;;20.40;;
32393;SDS011;18853;45.426;9.206;2023-05-02T05:56:47;5.68;;;4.28;;
32393;SDS011;18853;45.426;9.206;2023-05-02T05:59:13;8.80;;;6.32;;
32393;SDS011;18853;45.426;9.206;2023-05-02T06:01:39;23.23;;;15.50;;
32393;SDS011;18853;45.426;9.206;2023-05-02T06:04:05;49.05;;;31.30;;
32393;SDS011;18853;45.426;9.206;2023-05-02T06:06:31;6.32;;;4.57;;
32393;SDS011;18853;45.426;9.206;2023-05-02T06:08:57;6.90;;;3.67;;
32393;SDS011;18853;45.426;9.206;2023-05-02T06:11:23;5.28;;;3.85;;
32393;SDS011;18853;45.426;9.206;2023-05-02T06:13:50;25.27;;;16.38;;
32393;SDS011;18853;45.426;9.206;2023-05-02T06:16:16;48.75;;;31.98;;
32393;SDS011;18853;45.426;9.206;2023-05-02T06:18:42;58.70;;;36.33;;
32393;SDS011;18853;45.426;9.206;2023-05-02T06:21:08;39.88;;;26.83;;
32393;SDS011;18853;45.426;9.206;2023-05-02T06:23:34;35.20;;;19.83;;
32393;SDS011;18853;45.426;9.206;2023-05-02T06:26:00;17.15;;;11.68;;
32393;SDS011;18853;45.426;9.206;2023-05-02T06:28:28;29.90;;;19.67;;
32393;SDS011;18853;45.426;9.206;2023-05-02T06:30:57;29.85;;;20.67;;
32393;SDS011;18853;45.426;9.206;2023-05-02T06:33:23;38.17;;;25.52;;
32393;SDS011;18853;45.426;9.206;2023-05-02T06:35:51;23.83;;;15.32;;
32393;SDS011;18853;45.426;9.206;2023-05-02T06:38:17;23.05;;;16.35;;
32393;SDS011;18853;45.426;9.206;2023-05-02T06:40:43;17.92;;;11.93;;
32393;SDS011;18853;45.426;9.206;2023-05-02T06:43:13;15.23;;;10.18;;
32393;SDS011;18853;45.426;9.206;2023-05-02T06:45:39;14.52;;;9.85;;
32393;SDS011;18853;45.426;9.206;2023-05-02T06:48:05;10.15;;;6.15;;
32393;SDS011;18853;45.426;9.206;2023-05-02T06:50:32;7.75;;;5.18;;
32393;SDS011;18853;45.426;9.206;2023-05-02T06:52:58;7.57;;;3.80;;
32393;SDS011;18853;45.426;9.206;2023-05-02T06:55:24;6.45;;;4.00;;
32393;SDS011;18853;45.426;9.206;2023-05-02T06:57:50;6.63;;;3.83;;
32393;SDS011;18853;45.426;9.206;2023-05-02T07:00:16;5.45;;;3.72;;
32393;SDS011;18853;45.426;9.206;2023-05-02T07:02:43;5.88;;;3.70;;
32393;SDS011;18853;45.426;9.206;2023-05-02T07:05:13;5.90;;;3.97;;
32393;SDS011;18853;45.426;9.206;2023-05-02T07:07:43;5.82;;;4.10;;
32393;SDS011;18853;45.426;9.206;2023-05-02T07:10:09;5.43;;;3.70;;
32393;SDS011;18853;45.426;9.206;2023-05-02T07:12:35;6.00;;;3.65;;
32393;SDS011;18853;45.426;9.206;2023-05-02T07:15:04;5.88;;;3.42;;
32393;SDS011;18853;45.426;9.206;2023-05-02T07:17:30;5.10;;;3.45;;
32393;SDS011;18853;45.426;9.206;2023-05-02T07:19:56;5.78;;;3.85;;
32393;SDS011;18853;45.426;9.206;2023-05-02T07:22:22;5.50;;;3.38;;
32393;SDS011;18853;45.426;9.206;2023-05-02T07:24:48;5.05;;;3.30;;
32393;SDS011;18853;45.426;9.206;2023-05-02T07:27:20;6.38;;;2.88;;
32393;SDS011;18853;45.426;9.206;2023-05-02T07:29:46;4.63;;;3.00;;
32393;SDS011;18853;45.426;9.206;2023-05-02T07:32:12;5.32;;;3.13;;
32393;SDS011;18853;45.426;9.206;2023-05-02T07:34:37;5.32;;;2.88;;
32393;SDS011;18853;45.426;9.206;2023-05-02T07:37:03;5.07;;;2.78;;
32393;SDS011;18853;45.426;9.206;2023-05-02T07:39:29;4.63;;;2.63;;
32393;SDS011;18853;45.426;9.206;2023-05-02T07:41:57;4.75;;;2.50;;
32393;SDS011;18853;45.426;9.206;2023-05-02T07:44:23;4.40;;;2.67;;
32393;SDS011;18853;45.426;9.206;2023-05-02T07:46:49;5.15;;;2.40;;
32393;SDS011;18853;45.426;9.206;2023-05-02T07:49:16;3.38;;;2.30;;
32393;SDS011;18853;45.426;9.206;2023-05-02T07:51:42;5.45;;;2.80;;
32393;SDS011;18853;45.426;9.206;2023-05-02T07:54:16;4.07;;;2.50;;
32393;SDS011;18853;45.426;9.206;2023-05-02T07:56:46;3.92;;;2.28;;
32393;SDS011;18853;45.426;9.206;2023-05-02T07:59:13;5.20;;;2.50;;
32393;SDS011;18853;45.426;9.206;2023-05-02T08:01:39;4.22;;;3.00;;
32393;SDS011;18853;45.426;9.206;2023-05-02T08:04:05;4.18;;;2.83;;
32393;SDS011;18853;45.426;9.206;2023-05-02T08:06:32;5.55;;;3.08;;
32393;SDS011;18853;45.426;9.206;2023-05-02T08:08:58;5.25;;;2.83;;
32393;SDS011;18853;45.426;9.206;2023-05-02T08:11:24;4.90;;;3.42;;
32393;SDS011;18853;45.426;9.206;2023-05-02T08:13:50;5.38;;;3.42;;
32393;SDS011;18853;45.426;9.206;2023-05-02T08:16:17;5.18;;;3.35;;
32393;SDS011;18853;45.426;9.206;2023-05-02T08:18:42;5.40;;;3.70;;
32393;SDS011;18853;45.426;9.206;2023-05-02T08:21:08;4.90;;;3.08;;
32393;SDS011;18853;45.426;9.206;2023-05-02T08:23:34;6.72;;;3.72;;
32393;SDS011;18853;45.426;9.206;2023-05-02T08:26:01;4.35;;;3.13;;
32393;SDS011;18853;45.426;9.206;2023-05-02T08:28:27;4.38;;;3.10;;
32393;SDS011;18853;45.426;9.206;2023-05-02T08:30:54;4.75;;;2.92;;
32393;SDS011;18853;45.426;9.206;2023-05-02T08:33:20;4.82;;;3.33;;
32393;SDS011;18853;45.426;9.206;2023-05-02T08:35:45;7.53;;;3.70;;
32393;SDS011;18853;45.426;9.206;2023-05-02T08:38:11;5.75;;;2.97;;
32393;SDS011;18853;45.426;9.206;2023-05-02T08:40:37;5.00;;;2.85;;
32393;SDS011;18853;45.426;9.206;2023-05-02T08:43:03;6.22;;;3.10;;
32393;SDS011;18853;45.426;9.206;2023-05-02T08:45:39;5.28;;;3.22;;
32393;SDS011;18853;45.426;9.206;2023-05-02T08:48:07;5.30;;;3.47;;
32393;SDS011;18853;45.426;9.206;2023-05-02T08:50:41;4.60;;;3.10;;
32393;SDS011;18853;45.426;9.206;2023-05-02T08:53:09;6.30;;;2.65;;
32393;SDS011;18853;45.426;9.206;2023-05-02T08:55:37;6.03;;;3.60;;
32393;SDS011;18853;45.426;9.206;2023-05-02T08:58:04;5.60;;;2.65;;
32393;SDS011;18853;45.426;9.206;2023-05-02T09:00:31;5.65;;;3.22;;
32393;SDS011;18853;45.426;9.206;2023-05-02T09:06:10;6.10;;;3.45;;
32393;SDS011;18853;45.426;9.206;2023-05-02T09:08:39;5.45;;;2.75;;
32393;SDS011;18853;45.426;9.206;2023-05-02T09:11:05;3.88;;;2.53;;
32393;SDS011;18853;45.426;9.206;2023-05-02T09:13:34;4.40;;;2.15;;
32393;SDS011;18853;45.426;9.206;2023-05-02T09:16:05;3.20;;;1.88;;
32393;SDS011;18853;45.426;9.206;2023-05-02T09:18:42;3.47;;;2.03;;
32393;SDS011;18853;45.426;9.206;2023-05-02T09:23:46;4.03;;;2.13;;
32393;SDS011;18853;45.426;9.206;2023-05-02T09:28:43;2.90;;;1.65;;
32393;SDS011;18853;45.426;9.206;2023-05-02T09:31:10;2.80;;;2.00;;
32393;SDS011;18853;45.426;9.206;2023-05-02T09:33:38;5.30;;;2.50;;
32393;SDS011;18853;45.426;9.206;2023-05-02T09:36:05;2.92;;;2.13;;
32393;SDS011;18853;45.426;9.206;2023-05-02T09:38:31;3.47;;;2.25;;
32393;SDS011;18853;45.426;9.206;2023-05-02T09:40:58;3.75;;;2.20;;
32393;SDS011;18853;45.426;9.206;2023-05-02T09:43:24;3.20;;;2.20;;
32393;SDS011;18853;45.426;9.206;2023-05-02T09:45:57;3.38;;;2.38;;
32393;SDS011;18853;45.426;9.206;2023-05-02T09:48:30;4.18;;;2.50;;
32393;SDS011;18853;45.426;9.206;2023-05-02T09:50:57;4.22;;;2.28;;
32393;SDS011;18853;45.426;9.206;2023-05-02T09:53:26;5.10;;;2.60;;
32393;SDS011;18853;45.426;9.206;2023-05-02T09:55:59;5.07;;;2.78;;
32393;SDS011;18853;45.426;9.206;2023-05-02T09:58:26;4.18;;;2.50;;
32393;SDS011;18853;45.426;9.206;2023-05-02T10:00:52;4.50;;;2.70;;
32393;SDS011;18853;45.426;9.206;2023-05-02T10:03:17;4.70;;;2.35;;
32393;SDS011;18853;45.426;9.206;2023-05-02T10:05:44;5.05;;;2.60;;
32393;SDS011;18853;45.426;9.206;2023-05-02T10:08:11;4.30;;;2.65;;
32393;SDS011;18853;45.426;9.206;2023-05-02T10:10:46;4.22;;;2.50;;
32393;SDS011;18853;45.426;9.206;2023-05-02T10:13:18;3.05;;;1.88;;
32393;SDS011;18853;45.426;9.206;2023-05-02T10:15:47;2.83;;;1.63;;
32393;SDS011;18853;45.426;9.206;2023-05-02T10:18:25;5.80;;;2.17;;
32393;SDS011;18853;45.426;9.206;2023-05-02T10:21:00;5.15;;;2.47;;
32393;SDS011;18853;45.426;9.206;2023-05-02T10:23:32;4.20;;;2.15;;
32393;SDS011;18853;45.426;9.206;2023-05-02T10:25:58;4.05;;;2.20;;
32393;SDS011;18853;45.426;9.206;2023-05-02T10:28:25;3.40;;;2.10;;
32393;SDS011;18853;45.426;9.206;2023-05-02T10:30:51;3.05;;;2.08;;
32393;SDS011;18853;45.426;9.206;2023-05-02T10:33:19;3.53;;;2.00;;
32393;SDS011;18853;45.426;9.206;2023-05-02T10:35:46;4.40;;;2.42;;
32393;SDS011;18853;45.426;9.206;2023-05-02T10:38:15;4.75;;;2.28;;
32393;SDS011;18853;45.426;9.206;2023-05-02T10:40:48;3.95;;;2.00;;
32393;SDS011;18853;45.426;9.206;2023-05-02T10:43:20;4.53;;;2.10;;
32393;SDS011;18853;45.426;9.206;2023-05-02T10:45:48;3.92;;;1.88;;
32393;SDS011;18853;45.426;9.206;2023-05-02T10:53:26;3.30;;;1.50;;
32393;SDS011;18853;45.426;9.206;2023-05-02T10:58:51;3.92;;;1.30;;
32393;SDS011;18853;45.426;9.206;2023-05-02T11:04:12;1.38;;;0.82;;
32393;SDS011;18853;45.426;9.206;2023-05-02T11:11:53;4.75;;;1.23;;
32393;SDS011;18853;45.426;9.206;2023-05-02T11:19:31;1.50;;;0.82;;
32393;SDS011;18853;45.426;9.206;2023-05-02T11:24:48;1.63;;;0.88;;
32393;SDS011;18853;45.426;9.206;2023-05-02T11:35:18;2.28;;;0.88;;
32393;SDS011;18853;45.426;9.206;2023-05-02T11:38:03;2.20;;;0.60;;
32393;SDS011;18853;45.426;9.206;2023-05-02T11:40:35;2.03;;;0.70;;
32393;SDS011;18853;45.426;9.206;2023-05-02T11:43:11;0.70;;;0.60;;
32393;SDS011;18853;45.426;9.206;2023-05-02T11:45:38;2.38;;;0.85;;
32393;SDS011;18853;45.426;9.206;2023-05-02T11:48:05;1.02;;;0.73;;
32393;SDS011;18853;45.426;9.206;2023-05-02T11:50:54;1.50;;;0.88;;
32393;SDS011;18853;45.426;9.206;2023-05-02T11:53:22;1.45;;;0.95;;
32393;SDS011;18853;45.426;9.206;2023-05-02T11:58:23;2.03;;;1.00;;
32393;SDS011;18853;45.426;9.206;2023-05-02T12:00:51;1.85;;;1.10;;
32393;SDS011;18853;45.426;9.206;2023-05-02T12:03:35;2.38;;;1.40;;
32393;SDS011;18853;45.426;9.206;2023-05-02T12:06:11;1.58;;;1.00;;
32393;SDS011;18853;45.426;9.206;2023-05-02T12:08:39;2.25;;;1.10;;
32393;SDS011;18853;45.426;9.206;2023-05-02T12:11:05;2.45;;;0.90;;
32393;SDS011;18853;45.426;9.206;2023-05-02T12:13:31;3.28;;;1.02;;
32393;SDS011;18853;45.426;9.206;2023-05-02T12:15:57;2.35;;;1.50;;
32393;SDS011;18853;45.426;9.206;2023-05-02T12:18:23;2.13;;;1.33;;
32393;SDS011;18853;45.426;9.206;2023-05-02T12:20:53;2.20;;;1.60;;
32393;SDS011;18853;45.426;9.206;2023-05-02T12:23:20;2.53;;;1.30;;
32393;SDS011;18853;45.426;9.206;2023-05-02T12:25:48;2.65;;;1.73;;
32393;SDS011;18853;45.426;9.206;2023-05-02T12:28:16;4.93;;;2.25;;
32393;SDS011;18853;45.426;9.206;2023-05-02T12:30:43;3.42;;;1.70;;
32393;SDS011;18853;45.426;9.206;2023-05-02T12:33:10;2.22;;;1.52;;
32393;SDS011;18853;45.426;9.206;2023-05-02T12:35:36;3.08;;;1.52;;
32393;SDS011;18853;45.426;9.206;2023-05-02T12:38:09;2.63;;;1.80;;
32393;SDS011;18853;45.426;9.206;2023-05-02T12:40:50;2.30;;;1.50;;
32393;SDS011;18853;45.426;9.206;2023-05-02T12:43:17;3.25;;;1.73;;
32393;SDS011;18853;45.426;9.206;2023-05-02T12:45:43;3.35;;;1.85;;
32393;SDS011;18853;45.426;9.206;2023-05-02T12:48:16;2.28;;;1.75;;
32393;SDS011;18853;45.426;9.206;2023-05-02T12:50:50;3.00;;;2.20;;
32393;SDS011;18853;45.426;9.206;2023-05-02T12:53:17;3.15;;;2.15;;
32393;SDS011;18853;45.426;9.206;2023-05-02T12:56:09;3.95;;;2.33;;
32393;SDS011;18853;45.426;9.206;2023-05-02T13:01:10;3.28;;;1.80;;
32393;SDS011;18853;45.426;9.206;2023-05-02T13:03:37;2.65;;;1.85;;
32393;SDS011;18853;45.426;9.206;2023-05-02T13:06:03;4.25;;;2.80;;
32393;SDS011;18853;45.426;9.206;2023-05-02T13:08:29;2.70;;;1.80;;
32393;SDS011;18853;45.426;9.206;2023-05-02T13:10:55;3.40;;;2.35;;
32393;SDS011;18853;45.426;9.206;2023-05-02T13:13:21;4.22;;;2.70;;
32393;SDS011;18853;45.426;9.206;2023-05-02T13:15:47;3.97;;;2.47;;
32393;SDS011;18853;45.426;9.206;2023-05-02T13:18:13;4.22;;;2.78;;
32393;SDS011;18853;45.426;9.206;2023-05-02T13:20:38;3.75;;;2.72;;
32393;SDS011;18853;45.426;9.206;2023-05-02T13:23:04;5.10;;;2.70;;
32393;SDS011;18853;45.426;9.206;2023-05-02T13:25:30;5.18;;;3.75;;
32393;SDS011;18853;45.426;9.206;2023-05-02T13:27:56;5.20;;;2.45;;
32393;SDS011;18853;45.426;9.206;2023-05-02T13:30:22;3.03;;;2.22;;
32393;SDS011;18853;45.426;9.206;2023-05-02T13:32:48;4.72;;;3.50;;
32393;SDS011;18853;45.426;9.206;2023-05-02T13:35:14;3.90;;;2.67;;
32393;SDS011;18853;45.426;9.206;2023-05-02T13:37:40;3.38;;;2.67;;
32393;SDS011;18853;45.426;9.206;2023-05-02T13:40:06;4.18;;;2.80;;
32393;SDS011;18853;45.426;9.206;2023-05-02T13:42:32;4.20;;;3.00;;
32393;SDS011;18853;45.426;9.206;2023-05-02T13:44:58;4.22;;;2.70;;
32393;SDS011;18853;45.426;9.206;2023-05-02T13:47:24;3.70;;;2.35;;
32393;SDS011;18853;45.426;9.206;2023-05-02T13:49:50;3.80;;;3.00;;
32393;SDS011;18853;45.426;9.206;2023-05-02T13:52:16;3.50;;;2.60;;
32393;SDS011;18853;45.426;9.206;2023-05-02T13:54:42;4.18;;;3.20;;
32393;SDS011;18853;45.426;9.206;2023-05-02T13:57:07;4.78;;;3.00;;
32393;SDS011;18853;45.426;9.206;2023-05-02T13:59:33;4.63;;;3.33;;
32393;SDS011;18853;45.426;9.206;2023-05-02T14:01:59;4.40;;;3.63;;
32393;SDS011;18853;45.426;9.206;2023-05-02T14:04:25;4.10;;;3.45;;
32393;SDS011;18853;45.426;9.206;2023-05-02T14:06:50;5.20;;;3.80;;
32393;SDS011;18853;45.426;9.206;2023-05-02T14:09:16;4.78;;;3.88;;
32393;SDS011;18853;45.426;9.206;2023-05-02T14:11:42;3.75;;;2.75;;
32393;SDS011;18853;45.426;9.206;2023-05-02T14:14:08;5.70;;;3.08;;
32393;SDS011;18853;45.426;9.206;2023-05-02T14:16:36;5.70;;;3.60;;
32393;SDS011;18853;45.426;9.206;2023-05-02T14:19:03;5.07;;;4.22;;
32393;SDS011;18853;45.426;9.206;2023-05-02T14:21:28;7.00;;;4.43;;
32393;SDS011;18853;45.426;9.206;2023-05-02T14:23:54;4.90;;;4.10;;
32393;SDS011;18853;45.426;9.206;2023-05-02T14:26:20;5.90;;;4.70;;
32393;SDS011;18853;45.426;9.206;2023-05-02T14:28:45;6.18;;;4.95;;
32393;SDS011;18853;45.426;9.206;2023-05-02T14:31:11;5.03;;;3.92;;
32393;SDS011;18853;45.426;9.206;2023-05-02T14:33:38;8.18;;;4.90;;
32393;SDS011;18853;45.426;9.206;2023-05-02T14:36:04;4.85;;;4.15;;
32393;SDS011;18853;45.426;9.206;2023-05-02T14:38:29;6.10;;;5.10;;
32393;SDS011;18853;45.426;9.206;2023-05-02T14:40:55;5.40;;;4.25;;
32393;SDS011;18853;45.426;9.206;2023-05-02T14:43:21;5.28;;;4.20;;
32393;SDS011;18853;45.426;9.206;2023-05-02T14:45:47;5.60;;;4.38;;
32393;SDS011;18853;45.426;9.206;2023-05-02T14:48:12;6.68;;;4.82;;
32393;SDS011;18853;45.426;9.206;2023-05-02T14:50:40;8.27;;;5.32;;
32393;SDS011;18853;45.426;9.206;2023-05-02T14:53:06;5.70;;;4.43;;
32393;SDS011;18853;45.426;9.206;2023-05-02T14:55:35;5.85;;;4.68;;
32393;SDS011;18853;45.426;9.206;2023-05-02T14:58:02;7.60;;;4.00;;
32393;SDS011;18853;45.426;9.206;2023-05-02T15:00:35;4.75;;;3.92;;
32393;SDS011;18853;45.426;9.206;2023-05-02T15:03:05;5.53;;;4.50;;
32393;SDS011;18853;45.426;9.206;2023-05-02T15:05:31;5.22;;;4.13;;
32393;SDS011;18853;45.426;9.206;2023-05-02T15:07:57;5.38;;;4.38;;
32393;SDS011;18853;45.426;9.206;2023-05-02T15:10:23;6.10;;;4.93;;
32393;SDS011;18853;45.426;9.206;2023-05-02T15:12:49;6.20;;;4.75;;
32393;SDS011;18853;45.426;9.206;2023-05-02T15:15:15;6.47;;;5.45;;
32393;SDS011;18853;45.426;9.206;2023-05-02T15:20:16;6.83;;;4.80;;
32393;SDS011;18853;45.426;9.206;2023-05-02T15:22:42;7.85;;;6.15;;
32393;SDS011;18853;45.426;9.206;2023-05-02T15:25:08;8.32;;;6.28;;
32393;SDS011;18853;45.426;9.206;2023-05-02T15:27:34;8.07;;;6.55;;
32393;SDS011;18853;45.426;9.206;2023-05-02T15:30:00;8.45;;;5.88;;
32393;SDS011;18853;45.426;9.206;2023-05-02T15:32:30;6.53;;;5.30;;
32393;SDS011;18853;45.426;9.206;2023-05-02T15:34:56;6.20;;;5.15;;
32393;SDS011;18853;45.426;9.206;2023-05-02T15:37:21;6.82;;;6.07;;
32393;SDS011;18853;45.426;9.206;2023-05-02T15:39:47;6.25;;;5.47;;
32393;SDS011;18853;45.426;9.206;2023-05-02T15:42:14;6.18;;;4.82;;
32393;SDS011;18853;45.426;9.206;2023-05-02T15:44:40;6.20;;;4.85;;
32393;SDS011;18853;45.426;9.206;2023-05-02T15:47:06;5.47;;;4.35;;
32393;SDS011;18853;45.426;9.206;2023-05-02T15:49:33;4.45;;;3.70;;
32393;SDS011;18853;45.426;9.206;2023-05-02T15:51:59;5.00;;;3.80;;
32393;SDS011;18853;45.426;9.206;2023-05-02T15:54:25;5.13;;;3.20;;
32393;SDS011;18853;45.426;9.206;2023-05-02T15:56:50;5.97;;;3.70;;
32393;SDS011;18853;45.426;9.206;2023-05-02T15:59:17;4.68;;;3.67;;
32393;SDS011;18853;45.426;9.206;2023-05-02T16:01:43;5.00;;;3.70;;